עמוד ראשי
METAR-TAF:

METAR-TAF

שדות תעופה :

Antofagasta, צ'ילה

קו רוחב: 23-26S, קו אורך: 070-26W, גובה: 135מטר

תצפית מזג אוויר נוכחית

הדו"ח נערך לפני 46דקות, בשעה 09:00 UTC
רוח 1קשר מכיוון צפון-מערב
טמפרטורת 19 צלסיוס
לחות 83%
לחץ 1012 hPa
ראות 10 קילומטר או יותר
מעונן בגובה 2600רגל

METAR: SCFA 290900Z 32001KT 9999 OVC026 19/16 Q1012 NOSIG

זמן: 06:46 (09:46 UTC)

תחזית

הדו"ח נערך לפני 5 שעות ו 18דקות, בשעה 04:28 UTC
תחזית בתוקף מ 29 ב 06 UTC עד 01 ב 06 UTC
רוח 4קשר מכיוון דרום/דרום-מערב
ראות 10 קילומטר או יותר
עננים פזורים בגובה 2000רגל
יעשה מ
29 ב 10 UTC עד 29 ב 12 UTC
רוח 6קשר מכיוון מזרח/צפון-מזרח
מעט עננים בגובה 2500רגל
יעשה מ
29 ב 15 UTC עד 29 ב 17 UTC
רוח 14קשר מכיוון דרום/דרום-מערב
יעשה מ
29 ב 22 UTC עד 01 ב 00 UTC
עננים בינוניים בגובה 2500רגל
יעשה מ
01 ב 02 UTC עד 01 ב 04 UTC
רוח 4קשר מכיוון דרום/דרום-מערב

TAF: SCFA 290428Z 2906/0106 20004KT 9999 SCT020 TN18/2910Z TX24/2918Z BECMG 2910/2912 07006KT FEW025 BECMG 2915/2917 20014KT BECMG 2922/0100 BKN025 BECMG 0102/0104 20004KT

תצפיות ותחזיות מזג אוויר לגבי יותר מ- 4,000 שדות תעופה ברחבי העולם. דוחות METAR ו- TAF.

התחנות הזמינות מסומנות בנקודות צהובות ואדומות על גבי המפה.

העבר את העכבר לנקודה הצבעונית על מנת לראות את שם התחנה.

לאחר מכן, לחץ כדי לראות את תוכן ואת תחזיות מזג האוויר.

כדי לשנות את המפה: לחץ על הכפתורים הירוקים עם הפלוס השחור כדי להתקרב; על הכפתור הירוק עם המקף כדי להתרחק; או בחיצים הירוקים למפות סמוכות.


METAR-TAF: